Time;durP1;ratioP1;P1;durP2;ratioP2;P2;SDS_P1;SDS_P2;PMS_P1;PMS_P2;Temp;Humidity;BMP_temperature;BMP_pressure;BME280_temperature;BME280_humidity;BME280_pressure;Samples;Min_cycle;Max_cycle;Signal;HPM_P1;HPM_P2
2022/09/21 00:02:19;;;;;;;3.47;1.33;;;;;;;;;;4970154;28;20085;-59
2022/09/21 00:04:45;;;;;;;2.00;1.20;;;;;;;;;;4968582;28;20054;-59
2022/09/21 00:07:10;;;;;;;5.22;1.48;;;;;;;;;;4970995;28;20113;-59
2022/09/21 00:09:36;;;;;;;5.70;1.40;;;;;;;;;;4969130;28;20055;-59
2022/09/21 00:12:02;;;;;;;2.47;1.10;;;;;;;;;;4966509;28;20035;-59
2022/09/21 00:14:30;;;;;;;2.17;1.15;;;;;;;;;;4970144;28;20121;-59
2022/09/21 00:16:55;;;;;;;3.40;1.40;;;;;;;;;;4969916;28;20431;-59
2022/09/21 00:19:21;;;;;;;2.53;1.23;;;;;;;;;;4969812;28;20033;-59
2022/09/21 00:21:47;;;;;;;2.60;1.15;;;;;;;;;;4969192;28;20039;-59
2022/09/21 00:24:13;;;;;;;3.10;1.52;;;;;;;;;;4966914;28;20411;-58
2022/09/21 00:26:39;;;;;;;1.83;1.23;;;;;;;;;;4967353;28;20039;-59
2022/09/21 00:29:05;;;;;;;4.28;1.10;;;;;;;;;;4968808;28;20045;-59
2022/09/21 00:31:30;;;;;;;1.75;1.30;;;;;;;;;;4970571;28;20045;-59
2022/09/21 00:33:57;;;;;;;2.75;1.20;;;;;;;;;;4968231;28;20408;-59
2022/09/21 00:36:24;;;;;;;7.10;2.42;;;;;;;;;;4969489;28;20030;-59
2022/09/21 00:38:52;;;;;;;1.90;1.10;;;;;;;;;;4969545;28;20511;-58
2022/09/21 00:41:18;;;;;;;8.05;1.40;;;;;;;;;;4970144;28;20031;-59
2022/09/21 00:44:08;;;;;;;6.47;1.20;;;;;;;;;;4968816;28;20066;-59
2022/09/21 00:46:36;;;;;;;6.50;1.15;;;;;;;;;;4966932;28;20030;-59
2022/09/21 00:49:02;;;;;;;6.72;0.98;;;;;;;;;;4965948;28;20058;-59
2022/09/21 00:51:28;;;;;;;6.50;1.30;;;;;;;;;;4969947;28;20054;-59
2022/09/21 00:54:01;;;;;;;3.35;1.23;;;;;;;;;;4969829;28;20077;-59
2022/09/21 00:56:28;;;;;;;1.13;1.00;;;;;;;;;;4966595;28;20027;-59
2022/09/21 00:58:54;;;;;;;5.10;1.10;;;;;;;;;;4968888;28;20141;-59
2022/09/21 01:01:21;;;;;;;2.35;1.10;;;;;;;;;;4968485;28;20491;-59
2022/09/21 01:03:49;;;;;;;2.10;0.88;;;;;;;;;;4967759;28;20027;-59
2022/09/21 01:06:18;;;;;;;2.30;1.17;;;;;;;;;;4968734;28;20066;-59
2022/09/21 01:08:46;;;;;;;5.80;1.40;;;;;;;;;;4969084;28;20030;-58
2022/09/21 01:11:33;;;;;;;6.55;1.23;;;;;;;;;;4969215;28;20059;-59
2022/09/21 01:13:58;;;;;;;10.55;1.20;;;;;;;;;;4967971;28;20031;-59
2022/09/21 01:16:38;;;;;;;3.95;1.30;;;;;;;;;;4967759;28;20049;-59
2022/09/21 01:19:27;;;;;;;4.20;1.08;;;;;;;;;;4965619;28;20434;-59
2022/09/21 01:22:11;;;;;;;3.47;1.20;;;;;;;;;;4969601;28;20037;-59
2022/09/21 01:24:59;;;;;;;2.15;1.13;;;;;;;;;;4966636;28;20038;-59
2022/09/21 01:27:38;;;;;;;3.50;1.25;;;;;;;;;;4968622;28;20451;-58
2022/09/21 01:30:13;;;;;;;5.38;1.20;;;;;;;;;;4968112;28;20534;-59
2022/09/21 01:33:01;;;;;;;1.30;1.08;;;;;;;;;;4967600;28;20110;-59
2022/09/21 01:35:32;;;;;;;4.00;1.15;;;;;;;;;;4965903;28;20046;-59
2022/09/21 01:38:04;;;;;;;3.08;1.27;;;;;;;;;;4968988;28;20038;-59
2022/09/21 01:40:35;;;;;;;2.25;1.13;;;;;;;;;;4968089;28;20566;-59
2022/09/21 01:43:03;;;;;;;4.07;1.48;;;;;;;;;;4968148;28;20027;-59
2022/09/21 01:45:39;;;;;;;1.70;1.05;;;;;;;;;;4967934;28;20039;-59
2022/09/21 01:48:04;;;;;;;1.88;1.08;;;;;;;;;;4966207;28;20018;-58
2022/09/21 01:50:37;;;;;;;3.13;1.10;;;;;;;;;;4967994;28;20045;-59
2022/09/21 01:53:23;;;;;;;3.35;0.95;;;;;;;;;;4966965;28;20075;-59
2022/09/21 01:55:52;;;;;;;2.42;0.95;;;;;;;;;;4968615;28;20031;-59
2022/09/21 01:58:26;;;;;;;1.17;0.93;;;;;;;;;;4968751;28;20664;-59
2022/09/21 02:00:55;;;;;;;2.22;1.45;;;;;;;;;;4966001;28;20039;-59
2022/09/21 02:03:25;;;;;;;3.33;1.08;;;;;;;;;;4968856;28;20495;-59
2022/09/21 02:05:51;;;;;;;5.18;0.80;;;;;;;;;;4968179;28;20058;-59
2022/09/21 02:08:16;;;;;;;2.97;1.30;;;;;;;;;;4964524;28;20437;-59
2022/09/21 02:10:46;;;;;;;5.22;1.23;;;;;;;;;;4967898;28;20056;-59
2022/09/21 02:13:15;;;;;;;7.03;1.10;;;;;;;;;;4966682;28;20042;-59
2022/09/21 02:15:57;;;;;;;2.33;1.00;;;;;;;;;;4967858;28;20045;-59
2022/09/21 02:18:28;;;;;;;4.95;0.90;;;;;;;;;;4968541;28;20059;-59
2022/09/21 02:20:58;;;;;;;3.10;1.33;;;;;;;;;;4968595;28;20039;-59
2022/09/21 02:23:33;;;;;;;2.50;1.00;;;;;;;;;;4967371;28;20027;-58
2022/09/21 02:26:01;;;;;;;1.75;0.82;;;;;;;;;;4962841;28;20073;-59
2022/09/21 02:28:36;;;;;;;1.98;0.93;;;;;;;;;;4967897;28;20167;-59
2022/09/21 02:31:16;;;;;;;5.53;1.20;;;;;;;;;;4967455;28;20088;-59
2022/09/21 02:34:00;;;;;;;1.70;0.95;;;;;;;;;;4967482;28;20038;-59
2022/09/21 02:36:46;;;;;;;3.28;1.15;;;;;;;;;;4971515;28;20066;-59
2022/09/21 02:39:23;;;;;;;4.38;0.95;;;;;;;;;;4970928;28;20411;-59
2022/09/21 02:42:09;;;;;;;2.53;1.00;;;;;;;;;;4972239;28;20411;-59
2022/09/21 02:44:41;;;;;;;5.60;1.08;;;;;;;;;;4972175;28;20392;-59
2022/09/21 02:47:18;;;;;;;4.68;1.00;;;;;;;;;;4970395;28;20026;-59
2022/09/21 02:49:50;;;;;;;3.55;1.10;;;;;;;;;;4970718;28;20035;-59
2022/09/21 02:52:17;;;;;;;;;;;;;;;;;;4971740;28;20023;-59
2022/09/21 02:54:46;;;;;;;4.43;0.88;;;;;;;;;;4970936;28;19965;-59
2022/09/21 02:57:14;;;;;;;3.42;0.95;;;;;;;;;;4971072;28;20023;-59
2022/09/21 02:59:40;;;;;;;4.38;1.08;;;;;;;;;;4971219;28;20026;-59
2022/09/21 03:02:05;;;;;;;1.60;0.82;;;;;;;;;;4971001;28;20027;-59
2022/09/21 03:04:32;;;;;;;2.97;1.25;;;;;;;;;;4971366;28;20035;-59
2022/09/21 03:06:57;;;;;;;3.45;1.00;;;;;;;;;;4970692;28;20058;-59
2022/09/21 03:09:23;;;;;;;2.90;1.05;;;;;;;;;;4970743;28;20471;-56
2022/09/21 03:11:50;;;;;;;2.83;1.10;;;;;;;;;;4969854;28;20039;-59
2022/09/21 03:14:15;;;;;;;3.50;1.10;;;;;;;;;;4970570;28;20027;-59
2022/09/21 03:16:41;;;;;;;7.65;1.38;;;;;;;;;;4969541;28;20027;-59
2022/09/21 03:19:07;;;;;;;2.42;1.02;;;;;;;;;;4969886;28;20073;-59
2022/09/21 03:21:33;;;;;;;5.00;2.15;;;;;;;;;;4971156;28;20069;-59
2022/09/21 03:23:58;;;;;;;5.95;1.13;;;;;;;;;;4969915;28;20031;-59
2022/09/21 03:26:24;;;;;;;3.45;1.10;;;;;;;;;;4970749;28;20042;-59
2022/09/21 03:28:53;;;;;;;2.30;0.90;;;;;;;;;;4970439;28;20050;-59
2022/09/21 03:31:19;;;;;;;1.35;1.20;;;;;;;;;;4967559;28;20508;-59
2022/09/21 03:33:45;;;;;;;3.40;1.40;;;;;;;;;;4970812;28;20059;-59
2022/09/21 03:36:10;;;;;;;3.22;1.10;;;;;;;;;;4969963;28;20074;-59
2022/09/21 03:38:36;;;;;;;2.10;0.88;;;;;;;;;;4969284;28;20070;-59
2022/09/21 03:41:03;;;;;;;2.17;1.13;;;;;;;;;;4971649;28;20030;-59
2022/09/21 03:43:29;;;;;;;5.38;1.77;;;;;;;;;;4970585;28;20518;-59
2022/09/21 03:45:54;;;;;;;7.68;1.85;;;;;;;;;;4968805;28;20133;-59
2022/09/21 03:48:21;;;;;;;6.28;1.33;;;;;;;;;;4970233;28;20372;-59
2022/09/21 03:50:47;;;;;;;3.60;1.13;;;;;;;;;;4972617;28;20492;-59
2022/09/21 03:53:12;;;;;;;2.95;0.95;;;;;;;;;;4970247;28;20084;-59
2022/09/21 03:55:38;;;;;;;4.10;1.00;;;;;;;;;;4970794;28;20564;-59
2022/09/21 03:58:04;;;;;;;5.28;1.42;;;;;;;;;;4968947;28;20053;-58
2022/09/21 04:00:30;;;;;;;2.95;0.90;;;;;;;;;;4970824;28;20388;-59
2022/09/21 04:02:56;;;;;;;5.20;1.15;;;;;;;;;;4970135;28;20483;-59
2022/09/21 04:05:22;;;;;;;1.63;1.10;;;;;;;;;;4970632;28;20030;-59
2022/09/21 04:07:48;;;;;;;2.38;1.25;;;;;;;;;;4967556;28;20031;-59
2022/09/21 04:10:18;;;;;;;3.03;1.35;;;;;;;;;;4970454;28;20106;-59
2022/09/21 04:12:45;;;;;;;2.65;1.27;;;;;;;;;;4970420;28;20030;-58
2022/09/21 04:15:18;;;;;;;3.00;1.35;;;;;;;;;;4963574;28;20052;-59
2022/09/21 04:17:45;;;;;;;2.75;1.10;;;;;;;;;;4967438;28;20628;-59
2022/09/21 04:20:11;;;;;;;3.75;1.13;;;;;;;;;;4970542;28;20023;-59
2022/09/21 04:22:37;;;;;;;9.20;1.15;;;;;;;;;;4968260;28;20031;-59
2022/09/21 04:25:04;;;;;;;4.40;1.33;;;;;;;;;;4970192;28;20027;-59
2022/09/21 04:27:31;;;;;;;3.92;1.10;;;;;;;;;;4966782;28;20030;-59
2022/09/21 04:29:56;;;;;;;2.90;1.30;;;;;;;;;;4968490;28;20026;-59
2022/09/21 04:32:22;;;;;;;3.33;1.30;;;;;;;;;;4970021;28;20038;-59
2022/09/21 04:34:48;;;;;;;4.68;1.02;;;;;;;;;;4968273;28;20066;-58
2022/09/21 04:37:13;;;;;;;2.05;1.10;;;;;;;;;;4969224;28;20557;-59
2022/09/21 04:39:39;;;;;;;2.08;1.13;;;;;;;;;;4969675;28;20093;-59
2022/09/21 04:42:05;;;;;;;3.53;1.17;;;;;;;;;;4968173;28;20050;-58
2022/09/21 04:44:30;;;;;;;1.52;1.00;;;;;;;;;;4969667;28;20475;-59
2022/09/21 04:46:57;;;;;;;1.42;0.90;;;;;;;;;;4967116;28;20054;-59
2022/09/21 04:49:23;;;;;;;4.50;1.35;;;;;;;;;;4970272;28;20041;-58
2022/09/21 04:51:49;;;;;;;4.30;1.38;;;;;;;;;;4970252;28;20069;-59
2022/09/21 04:54:14;;;;;;;3.55;1.10;;;;;;;;;;4969770;28;20154;-59
2022/09/21 04:56:40;;;;;;;5.43;1.17;;;;;;;;;;4970053;28;20101;-59
2022/09/21 04:59:05;;;;;;;1.40;1.00;;;;;;;;;;4970457;28;20049;-59
2022/09/21 05:01:31;;;;;;;2.13;1.20;;;;;;;;;;4969198;28;20057;-59
2022/09/21 05:04:00;;;;;;;3.25;1.30;;;;;;;;;;4969832;28;20058;-59
2022/09/21 05:06:30;;;;;;;3.88;1.20;;;;;;;;;;4966335;28;20043;-59
2022/09/21 05:11:41;;;;;;;5.22;1.25;;;;;;;;;;4960327;28;20054;-59
2022/09/21 05:14:07;;;;;;;5.53;1.10;;;;;;;;;;4960293;28;20494;-58
2022/09/21 05:16:33;;;;;;;4.15;1.23;;;;;;;;;;4946091;28;20116;-59
2022/09/21 05:18:58;;;;;;;4.82;1.45;;;;;;;;;;4963013;28;20066;-59
2022/09/21 05:21:24;;;;;;;2.60;1.52;;;;;;;;;;4964498;28;20050;-57
2022/09/21 05:23:50;;;;;;;3.00;1.30;;;;;;;;;;4963004;28;20036;-59
2022/09/21 05:26:16;;;;;;;4.93;1.40;;;;;;;;;;4965857;28;20058;-59
2022/09/21 05:28:42;;;;;;;5.30;1.60;;;;;;;;;;4965067;28;20046;-59
2022/09/21 05:31:10;;;;;;;1.92;1.25;;;;;;;;;;4964325;28;20373;-59
2022/09/21 05:33:41;;;;;;;2.70;1.25;;;;;;;;;;4967628;28;20043;-59
2022/09/21 05:36:28;;;;;;;2.58;1.00;;;;;;;;;;4966225;28;20106;-58
2022/09/21 05:38:55;;;;;;;5.28;1.58;;;;;;;;;;4968890;28;20031;-59
2022/09/21 05:41:21;;;;;;;3.92;1.55;;;;;;;;;;4967991;28;20023;-59
2022/09/21 05:43:47;;;;;;;2.20;1.00;;;;;;;;;;4969090;28;20073;-58
2022/09/21 05:46:18;;;;;;;6.40;1.25;;;;;;;;;;4968899;28;20027;-59
2022/09/21 05:48:57;;;;;;;6.70;1.08;;;;;;;;;;4963133;28;20475;-58
2022/09/21 05:51:52;;;;;;;1.83;1.00;;;;;;;;;;4966176;28;20398;-59
2022/09/21 05:54:42;;;;;;;2.45;1.13;;;;;;;;;;4967714;28;20616;-59
2022/09/21 05:57:18;;;;;;;6.40;1.33;;;;;;;;;;4968987;28;20135;-59
2022/09/21 05:59:54;;;;;;;3.97;1.58;;;;;;;;;;4969387;28;20053;-59
2022/09/21 06:03:05;;;;;;;7.00;1.38;;;;;;;;;;4966120;28;20086;-59
2022/09/21 06:05:31;;;;;;;7.07;1.30;;;;;;;;;;4906429;29;20055;-59
2022/09/21 06:07:56;;;;;;;4.85;1.40;;;;;;;;;;4909133;29;20448;-59
2022/09/21 06:10:23;;;;;;;4.57;1.23;;;;;;;;;;4905737;29;20490;-59
2022/09/21 06:12:49;;;;;;;5.45;1.15;;;;;;;;;;4907090;29;20047;-58
2022/09/21 06:15:15;;;;;;;7.90;1.55;;;;;;;;;;4897843;29;20092;-59
2022/09/21 06:17:41;;;;;;;2.38;1.25;;;;;;;;;;4904009;29;20040;-59
2022/09/21 06:20:08;;;;;;;5.78;1.38;;;;;;;;;;4906187;29;20032;-58
2022/09/21 06:22:34;;;;;;;5.55;1.20;;;;;;;;;;4906410;29;20504;-59
2022/09/21 06:25:00;;;;;;;10.38;1.58;;;;;;;;;;4906530;29;20158;-59
2022/09/21 06:27:27;;;;;;;7.00;1.48;;;;;;;;;;4906485;29;20503;-58
2022/09/21 06:29:53;;;;;;;2.50;1.33;;;;;;;;;;4907729;29;20044;-59
2022/09/21 06:32:18;;;;;;;5.30;1.55;;;;;;;;;;4905333;29;20393;-59
2022/09/21 06:34:44;;;;;;;5.93;1.75;;;;;;;;;;4903785;29;20525;-58
2022/09/21 06:37:10;;;;;;;2.78;1.20;;;;;;;;;;4905049;29;20638;-59
2022/09/21 06:39:35;;;;;;;3.45;1.63;;;;;;;;;;4906141;29;20051;-59
2022/09/21 06:42:01;;;;;;;6.32;2.00;;;;;;;;;;4927723;28;20059;-59
2022/09/21 06:44:28;;;;;;;14.65;1.38;;;;;;;;;;4967456;28;20130;-59
2022/09/21 06:46:54;;;;;;;5.78;1.27;;;;;;;;;;4967124;28;20090;-59
2022/09/21 06:49:19;;;;;;;3.97;1.20;;;;;;;;;;4968377;28;20027;-59
2022/09/21 06:51:46;;;;;;;9.77;1.50;;;;;;;;;;4966826;28;20057;-59
2022/09/21 06:54:12;;;;;;;2.55;1.13;;;;;;;;;;4965387;28;20129;-59
2022/09/21 06:56:37;;;;;;;2.08;1.23;;;;;;;;;;4967687;28;20412;-59
2022/09/21 06:59:03;;;;;;;2.20;1.23;;;;;;;;;;4966121;28;20042;-59
2022/09/21 07:01:29;;;;;;;2.00;1.10;;;;;;;;;;4966447;28;20023;-59
2022/09/21 07:03:54;;;;;;;4.30;1.50;;;;;;;;;;4968346;28;20403;-59
2022/09/21 07:06:20;;;;;;;6.70;1.50;;;;;;;;;;4963496;28;20051;-59
2022/09/21 07:08:46;;;;;;;2.67;1.27;;;;;;;;;;4968085;28;20135;-59
2022/09/21 07:11:13;;;;;;;2.67;1.40;;;;;;;;;;4968148;28;20027;-59
2022/09/21 07:13:41;;;;;;;3.22;1.10;;;;;;;;;;4965919;28;20030;-59
2022/09/21 07:16:08;;;;;;;2.75;1.30;;;;;;;;;;4964139;28;20147;-59
2022/09/21 07:18:34;;;;;;;4.45;1.50;;;;;;;;;;4966870;28;20027;-59
2022/09/21 07:21:03;;;;;;;2.45;1.42;;;;;;;;;;4968089;28;20034;-59
2022/09/21 07:23:29;;;;;;;2.70;1.15;;;;;;;;;;4970976;28;20105;-59
2022/09/21 07:25:55;;;;;;;2.25;1.30;;;;;;;;;;4972641;28;20448;-59
2022/09/21 07:28:20;;;;;;;8.57;1.70;;;;;;;;;;4971546;28;20034;-59
2022/09/21 07:30:46;;;;;;;6.97;1.48;;;;;;;;;;4971184;28;20372;-59
2022/09/21 07:33:11;;;;;;;5.20;1.30;;;;;;;;;;4968923;28;20066;-59
2022/09/21 07:35:37;;;;;;;2.30;1.55;;;;;;;;;;4970118;28;20038;-59
2022/09/21 07:38:05;;;;;;;4.35;1.50;;;;;;;;;;4969476;28;20030;-59
2022/09/21 07:40:31;;;;;;;3.83;1.50;;;;;;;;;;4971035;28;20041;-59
2022/09/21 07:43:03;;;;;;;1.77;1.20;;;;;;;;;;4970617;28;20035;-59
2022/09/21 07:45:29;;;;;;;;;;;;;;;;;;4970398;28;21026;-59
2022/09/21 07:48:00;;;;;;;4.32;1.38;;;;;;;;;;4969903;28;19917;-59
2022/09/21 07:50:26;;;;;;;2.17;1.40;;;;;;;;;;4969678;28;20034;-59
2022/09/21 07:52:51;;;;;;;2.63;1.40;;;;;;;;;;4970922;28;20038;-59
2022/09/21 07:55:17;;;;;;;5.20;1.23;;;;;;;;;;4969055;28;20047;-59
2022/09/21 08:00:31;;;;;;;5.53;1.33;;;;;;;;;;4969960;28;20026;-60
2022/09/21 08:02:57;;;;;;;2.40;1.58;;;;;;;;;;4969114;28;20449;-59
2022/09/21 08:05:23;;;;;;;2.72;1.10;;;;;;;;;;4967806;28;20039;-59
2022/09/21 08:07:48;;;;;;;2.13;1.50;;;;;;;;;;4969799;28;20038;-59
2022/09/21 08:10:14;;;;;;;5.95;1.65;;;;;;;;;;4970966;28;20472;-59
2022/09/21 08:12:40;;;;;;;2.88;1.40;;;;;;;;;;4969252;28;20472;-59
2022/09/21 08:15:06;;;;;;;6.97;1.65;;;;;;;;;;4968784;28;20031;-59
2022/09/21 08:17:32;;;;;;;3.00;1.52;;;;;;;;;;4970237;28;20023;-59
2022/09/21 08:19:58;;;;;;;5.50;1.33;;;;;;;;;;4970032;28;20166;-59
2022/09/21 08:22:24;;;;;;;3.15;1.75;;;;;;;;;;4970033;28;20026;-59
2022/09/21 08:24:51;;;;;;;4.05;1.45;;;;;;;;;;4970475;28;20113;-59
2022/09/21 08:27:18;;;;;;;1.90;1.20;;;;;;;;;;4965230;28;20484;-59
2022/09/21 08:29:45;;;;;;;7.80;1.55;;;;;;;;;;4968076;28;20487;-59
2022/09/21 08:32:10;;;;;;;3.40;1.40;;;;;;;;;;4967128;28;20084;-60
2022/09/21 08:34:36;;;;;;;5.38;1.92;;;;;;;;;;4968793;28;20085;-59
2022/09/21 08:37:02;;;;;;;4.90;1.70;;;;;;;;;;4969406;28;20031;-59
2022/09/21 08:39:27;;;;;;;2.38;1.40;;;;;;;;;;4969790;28;20368;-60
2022/09/21 08:42:09;;;;;;;7.40;2.10;;;;;;;;;;4969779;28;20038;-59
2022/09/21 08:44:34;;;;;;;5.30;1.70;;;;;;;;;;4968655;28;20045;-60
2022/09/21 08:47:16;;;;;;;8.75;2.15;;;;;;;;;;4968607;28;20031;-59
2022/09/21 08:49:48;;;;;;;2.20;1.50;;;;;;;;;;4967784;28;20038;-59
2022/09/21 08:52:16;;;;;;;9.80;1.58;;;;;;;;;;4967194;28;20061;-59
2022/09/21 08:54:52;;;;;;;10.15;2.10;;;;;;;;;;4969993;28;20154;-59
2022/09/21 08:57:19;;;;;;;14.15;2.10;;;;;;;;;;4968258;28;20031;-59
2022/09/21 08:59:47;;;;;;;12.07;2.05;;;;;;;;;;4968382;28;20035;-59
2022/09/21 09:02:46;;;;;;;8.73;2.80;;;;;;;;;;4969403;28;20034;-59
2022/09/21 09:05:44;;;;;;;9.70;2.50;;;;;;;;;;4967017;28;20039;-59
2022/09/21 09:08:27;;;;;;;4.70;2.63;;;;;;;;;;4969293;28;20436;-59
2022/09/21 09:11:05;;;;;;;12.20;2.60;;;;;;;;;;4968481;28;20031;-59
2022/09/21 09:13:59;;;;;;;8.40;2.28;;;;;;;;;;4966664;28;20035;-59
2022/09/21 09:17:01;;;;;;;8.45;2.10;;;;;;;;;;4967772;28;20045;-59
2022/09/21 09:19:42;;;;;;;10.60;2.72;;;;;;;;;;4962611;28;20037;-59
2022/09/21 09:22:14;;;;;;;10.70;2.15;;;;;;;;;;4967322;28;20114;-59
2022/09/21 09:24:47;;;;;;;6.85;2.40;;;;;;;;;;4967235;28;20050;-59
2022/09/21 09:27:24;;;;;;;11.93;2.83;;;;;;;;;;4967114;28;20030;-59
2022/09/21 09:30:11;;;;;;;11.45;2.58;;;;;;;;;;4966972;28;20064;-59
2022/09/21 09:32:58;;;;;;;8.07;2.47;;;;;;;;;;4966507;28;20492;-59
2022/09/21 09:35:27;;;;;;;8.13;1.80;;;;;;;;;;4968132;28;20034;-59
2022/09/21 09:38:08;;;;;;;11.77;2.60;;;;;;;;;;4969189;28;20121;-59
2022/09/21 09:41:04;;;;;;;6.90;2.37;;;;;;;;;;4968501;28;20100;-59
2022/09/21 09:43:54;;;;;;;8.00;2.00;;;;;;;;;;4962603;28;20304;-59
2022/09/21 09:46:28;;;;;;;3.03;2.10;;;;;;;;;;4966245;28;20035;-59
2022/09/21 09:49:30;;;;;;;7.05;2.47;;;;;;;;;;4965438;28;20683;-59
2022/09/21 09:51:56;;;;;;;6.90;2.05;;;;;;;;;;4959313;28;20030;-59
2022/09/21 09:54:25;;;;;;;9.60;2.08;;;;;;;;;;4965844;28;20043;-59
2022/09/21 09:56:51;;;;;;;3.33;1.95;;;;;;;;;;4966370;28;20082;-59
2022/09/21 09:59:30;;;;;;;4.40;1.75;;;;;;;;;;4965206;28;20034;-59
2022/09/21 10:02:04;;;;;;;4.30;1.60;;;;;;;;;;4962597;28;20364;-59
2022/09/21 10:04:31;;;;;;;7.53;1.98;;;;;;;;;;4965416;28;20515;-59
2022/09/21 10:06:56;;;;;;;6.47;2.05;;;;;;;;;;4963448;28;20043;-59
2022/09/21 10:09:22;;;;;;;4.32;1.88;;;;;;;;;;4964351;28;20090;-59
2022/09/21 10:11:48;;;;;;;5.45;1.40;;;;;;;;;;4963864;28;20095;-59
2022/09/21 10:14:22;;;;;;;7.55;1.77;;;;;;;;;;4965616;28;20483;-60
2022/09/21 10:16:53;;;;;;;7.07;2.30;;;;;;;;;;4965619;28;20073;-58
2022/09/21 10:19:28;;;;;;;6.53;2.38;;;;;;;;;;4962304;28;20035;-59
2022/09/21 10:22:00;;;;;;;7.40;1.92;;;;;;;;;;4967545;28;20082;-59
2022/09/21 10:24:34;;;;;;;6.25;1.90;;;;;;;;;;4965898;28;20054;-59
2022/09/21 10:27:12;;;;;;;2.63;1.77;;;;;;;;;;4965052;28;21970;-59
2022/09/21 10:29:38;;;;;;;8.65;1.80;;;;;;;;;;4967504;28;20519;-59
2022/09/21 10:32:16;;;;;;;4.05;1.83;;;;;;;;;;4965042;28;20034;-59
2022/09/21 10:35:09;;;;;;;5.90;1.90;;;;;;;;;;4965577;28;20135;-59
2022/09/21 10:37:41;;;;;;;9.00;2.40;;;;;;;;;;4965909;28;20047;-59
2022/09/21 10:40:16;;;;;;;7.90;2.00;;;;;;;;;;4966325;28;20431;-59
2022/09/21 10:42:42;;;;;;;6.68;2.08;;;;;;;;;;4963357;28;20027;-59
2022/09/21 10:45:16;;;;;;;4.03;2.30;;;;;;;;;;4968718;28;20031;-63
2022/09/21 10:47:45;;;;;;;5.40;2.10;;;;;;;;;;4964655;28;20109;-59
2022/09/21 10:50:27;;;;;;;4.45;2.40;;;;;;;;;;4964520;28;20395;-59
2022/09/21 10:53:10;;;;;;;7.00;2.22;;;;;;;;;;4967468;28;20109;-59
2022/09/21 10:55:51;;;;;;;7.38;2.25;;;;;;;;;;4966709;28;20034;-59
2022/09/21 10:58:17;;;;;;;9.00;2.50;;;;;;;;;;4970208;28;20054;-59
2022/09/21 11:00:50;;;;;;;3.35;2.40;;;;;;;;;;4970966;28;20117;-60
2022/09/21 11:03:34;;;;;;;7.85;2.17;;;;;;;;;;4968597;28;20038;-59
2022/09/21 11:06:09;;;;;;;4.25;2.80;;;;;;;;;;4971391;28;20041;-59
2022/09/21 11:08:47;;;;;;;8.05;2.72;;;;;;;;;;4970857;28;20394;-59
2022/09/21 11:11:31;;;;;;;5.55;2.67;;;;;;;;;;4968716;28;20109;-59
2022/09/21 11:14:05;;;;;;;5.72;2.50;;;;;;;;;;4968467;28;20035;-59
2022/09/21 11:16:39;;;;;;;7.00;3.63;;;;;;;;;;4968157;28;20085;-59
2022/09/21 11:19:27;;;;;;;6.50;2.67;;;;;;;;;;4970573;28;20430;-59
2022/09/21 11:22:01;;;;;;;10.25;2.67;;;;;;;;;;4967762;28;20122;-59
2022/09/21 11:24:45;;;;;;;11.98;2.78;;;;;;;;;;4969475;28;20045;-60
2022/09/21 11:27:20;;;;;;;3.50;2.05;;;;;;;;;;4969367;28;20415;-59
2022/09/21 11:29:50;;;;;;;5.63;2.20;;;;;;;;;;4970103;28;20058;-60
2022/09/21 11:32:36;;;;;;;14.88;2.35;;;;;;;;;;4969344;28;20034;-59
2022/09/21 11:35:25;;;;;;;3.42;2.22;;;;;;;;;;4971044;28;20054;-59
2022/09/21 11:38:31;;;;;;;9.93;2.10;;;;;;;;;;4967586;28;20030;-59
2022/09/21 11:41:15;;;;;;;5.72;2.47;;;;;;;;;;4969143;28;20043;-59
2022/09/21 11:44:12;;;;;;;3.60;1.92;;;;;;;;;;4965977;28;20038;-59
2022/09/21 11:46:53;;;;;;;5.10;2.20;;;;;;;;;;4969632;28;20035;-59
2022/09/21 11:49:40;;;;;;;3.53;2.17;;;;;;;;;;4965751;28;20415;-59
2022/09/21 11:52:24;;;;;;;10.63;2.70;;;;;;;;;;4966041;28;20385;-59
2022/09/21 11:55:12;;;;;;;4.60;2.05;;;;;;;;;;4967852;28;20071;-58
2022/09/21 11:57:37;;;;;;;3.03;2.00;;;;;;;;;;4968736;28;20098;-59
2022/09/21 12:00:17;;;;;;;8.13;2.40;;;;;;;;;;4970684;28;20038;-59
2022/09/21 12:02:52;;;;;;;4.45;2.38;;;;;;;;;;4968715;28;20031;-59
2022/09/21 12:05:30;;;;;;;10.02;2.50;;;;;;;;;;4967947;28;20031;-59
2022/09/21 12:08:33;;;;;;;6.25;2.00;;;;;;;;;;4969645;28;20077;-59
2022/09/21 12:11:36;;;;;;;8.60;2.50;;;;;;;;;;4927458;29;20048;-59
2022/09/21 12:14:08;;;;;;;5.90;2.33;;;;;;;;;;4929883;29;20126;-59
2022/09/21 12:16:36;;;;;;;4.53;2.10;;;;;;;;;;4928762;29;20055;-59
2022/09/21 12:19:17;;;;;;;6.22;2.22;;;;;;;;;;4929759;29;20523;-59
2022/09/21 12:21:49;;;;;;;6.90;2.30;;;;;;;;;;4927862;29;20099;-59
2022/09/21 12:24:26;;;;;;;7.88;2.35;;;;;;;;;;4928955;29;20040;-59
2022/09/21 12:26:56;;;;;;;10.45;2.28;;;;;;;;;;4930267;29;20136;-59
2022/09/21 12:29:29;;;;;;;3.17;2.10;;;;;;;;;;4929674;29;20036;-59
2022/09/21 12:32:14;;;;;;;4.28;2.28;;;;;;;;;;4927891;29;20621;-59
2022/09/21 12:34:43;;;;;;;7.05;2.30;;;;;;;;;;4922849;29;20528;-59
2022/09/21 12:37:34;;;;;;;8.70;2.15;;;;;;;;;;4929836;29;20512;-59
2022/09/21 12:40:06;;;;;;;7.25;2.20;;;;;;;;;;4926140;29;20066;-59
2022/09/21 12:42:44;;;;;;;6.30;2.60;;;;;;;;;;4929391;29;20057;-59
2022/09/21 12:45:26;;;;;;;3.58;2.10;;;;;;;;;;4929063;29;20528;-59
2022/09/21 12:47:56;;;;;;;6.15;2.67;;;;;;;;;;4947593;28;20101;-59
2022/09/21 12:50:33;;;;;;;7.50;2.70;;;;;;;;;;4969163;28;20026;-60
2022/09/21 12:52:59;;;;;;;7.63;2.10;;;;;;;;;;4967399;28;20035;-60
2022/09/21 12:55:27;;;;;;;6.38;2.50;;;;;;;;;;4969591;28;20035;-57
2022/09/21 12:58:15;;;;;;;5.32;2.58;;;;;;;;;;4969975;28;20030;-59
2022/09/21 13:01:28;;;;;;;5.43;2.53;;;;;;;;;;4966783;28;20039;-59
2022/09/21 13:04:33;;;;;;;7.20;2.22;;;;;;;;;;4909225;29;20044;-59
2022/09/21 13:07:21;;;;;;;11.52;2.22;;;;;;;;;;4908634;29;20044;-59
2022/09/21 13:09:50;;;;;;;6.10;2.38;;;;;;;;;;4909743;29;20095;-59
2022/09/21 13:12:23;;;;;;;5.78;1.90;;;;;;;;;;4909899;29;20516;-59
2022/09/21 13:14:56;;;;;;;4.15;2.28;;;;;;;;;;4908448;29;20128;-59
2022/09/21 13:17:25;;;;;;;5.38;2.25;;;;;;;;;;4908997;29;20038;-59
2022/09/21 13:20:19;;;;;;;12.43;2.33;;;;;;;;;;4908909;29;20040;-59
2022/09/21 13:22:49;;;;;;;5.18;2.20;;;;;;;;;;4908305;29;20086;-56
2022/09/21 13:25:23;;;;;;;6.95;2.42;;;;;;;;;;4909760;29;20458;-59
2022/09/21 13:28:12;;;;;;;8.52;2.45;;;;;;;;;;4910915;29;20040;-59
2022/09/21 13:30:37;;;;;;;3.35;1.90;;;;;;;;;;4908369;29;20060;-59
2022/09/21 13:33:24;;;;;;;9.65;2.30;;;;;;;;;;4909394;29;20177;-59
2022/09/21 13:36:03;;;;;;;5.15;2.50;;;;;;;;;;4908907;29;20629;-59
2022/09/21 13:38:41;;;;;;;8.93;2.50;;;;;;;;;;4955061;28;20043;-59
2022/09/21 13:41:16;;;;;;;3.15;2.38;;;;;;;;;;4969465;28;20368;-59
2022/09/21 13:44:04;;;;;;;13.77;2.28;;;;;;;;;;4968331;28;20035;-59
2022/09/21 13:46:35;;;;;;;5.60;2.03;;;;;;;;;;4964550;28;20039;-59
2022/09/21 13:49:10;;;;;;;5.00;2.22;;;;;;;;;;4969563;28;20114;-59
2022/09/21 13:52:04;;;;;;;7.15;2.35;;;;;;;;;;4966146;28;20038;-59
2022/09/21 13:54:52;;;;;;;8.25;2.25;;;;;;;;;;4965836;28;20051;-59
2022/09/21 13:57:18;;;;;;;6.63;2.00;;;;;;;;;;4950539;28;20063;-59
2022/09/21 13:59:46;;;;;;;5.22;2.08;;;;;;;;;;4967721;28;20065;-58
2022/09/21 14:02:29;;;;;;;7.70;2.08;;;;;;;;;;4968418;28;20058;-58
2022/09/21 14:04:56;;;;;;;8.50;2.30;;;;;;;;;;4965969;28;20050;-58
2022/09/21 14:07:28;;;;;;;6.20;2.30;;;;;;;;;;4968729;28;20027;-59
2022/09/21 14:09:58;;;;;;;10.77;2.60;;;;;;;;;;4967901;28;20042;-59
2022/09/21 14:12:26;;;;;;;7.15;2.75;;;;;;;;;;4967496;28;20035;-59
2022/09/21 14:15:31;;;;;;;8.38;2.22;;;;;;;;;;4968305;28;20130;-59
2022/09/21 14:18:18;;;;;;;5.53;2.28;;;;;;;;;;4968929;28;20046;-59
2022/09/21 14:21:08;;;;;;;6.13;1.83;;;;;;;;;;4965887;28;20035;-59
2022/09/21 14:23:38;;;;;;;6.38;2.42;;;;;;;;;;4964846;28;20034;-59
2022/09/21 14:26:30;;;;;;;7.68;2.20;;;;;;;;;;4963200;28;20484;-59
2022/09/21 14:28:57;;;;;;;8.90;2.58;;;;;;;;;;4959329;28;20549;-59
2022/09/21 14:31:30;;;;;;;5.38;2.08;;;;;;;;;;4966972;28;20038;-59
2022/09/21 14:34:01;;;;;;;7.93;2.38;;;;;;;;;;4968203;28;20038;-59
2022/09/21 14:36:40;;;;;;;7.28;2.42;;;;;;;;;;4969896;28;20136;-59
2022/09/21 14:39:27;;;;;;;10.85;2.20;;;;;;;;;;4968269;28;20031;-59
2022/09/21 14:41:57;;;;;;;6.43;2.50;;;;;;;;;;4966545;28;20027;-60
2022/09/21 14:44:32;;;;;;;3.97;2.28;;;;;;;;;;4967426;28;20108;-59
2022/09/21 14:47:11;;;;;;;6.88;2.70;;;;;;;;;;4967554;28;20066;-59
2022/09/21 14:50:09;;;;;;;7.78;2.08;;;;;;;;;;4966539;28;20114;-59
2022/09/21 14:52:41;;;;;;;9.73;3.10;;;;;;;;;;4966684;28;20101;-59
2022/09/21 14:55:54;;;;;;;9.82;3.13;;;;;;;;;;4966261;28;20483;-59
2022/09/21 14:58:38;;;;;;;3.83;1.92;;;;;;;;;;4952891;28;20050;-59
2022/09/21 15:01:25;;;;;;;8.45;2.47;;;;;;;;;;4968115;28;20035;-59
2022/09/21 15:04:17;;;;;;;6.63;2.20;;;;;;;;;;4965536;28;20077;-59
2022/09/21 15:12:54;;;;;;;7.07;2.35;;;;;;;;;;4925734;29;20043;-59
2022/09/21 15:15:36;;;;;;;3.85;2.15;;;;;;;;;;4924996;29;20048;-59
2022/09/21 15:18:14;;;;;;;4.63;2.10;;;;;;;;;;4925504;29;20924;-59
2022/09/21 15:20:39;;;;;;;4.18;1.90;;;;;;;;;;4926416;29;20059;-59
2022/09/21 15:23:17;;;;;;;3.50;1.85;;;;;;;;;;4927557;29;20134;-59
2022/09/21 15:25:57;;;;;;;6.57;2.45;;;;;;;;;;4926912;29;20374;-59
2022/09/21 15:28:35;;;;;;;6.65;2.05;;;;;;;;;;4911038;29;20119;-59
2022/09/21 15:31:01;;;;;;;6.85;2.35;;;;;;;;;;4924611;29;21137;-59